createdAt,value
2022-09-28T00:03:26.937Z,21.61
2022-09-28T00:10:57.577Z,21.58
2022-09-28T00:18:49.637Z,21.63
2022-09-28T00:26:29.024Z,21.63
2022-09-28T00:34:10.597Z,21.64
2022-09-28T00:41:53.981Z,21.64
2022-09-28T00:49:56.301Z,21.6
2022-09-28T00:58:04.952Z,21.76
2022-09-28T01:05:57.749Z,21.64
2022-09-28T01:13:43.228Z,21.6
2022-09-28T01:22:03.472Z,21.6
2022-09-28T01:30:09.790Z,21.6
2022-09-28T01:38:36.451Z,21.58
2022-09-28T01:46:41.516Z,21.57
2022-09-28T01:54:55.064Z,21.59
2022-09-28T02:03:17.483Z,21.59
2022-09-28T02:11:39.077Z,21.57
2022-09-28T02:19:53.030Z,21.57
2022-09-28T02:28:11.108Z,21.52
2022-09-28T02:35:56.305Z,21.54
2022-09-28T02:43:44.715Z,21.58
2022-09-28T02:52:00.441Z,21.71
2022-09-28T03:00:17.779Z,21.71
2022-09-28T03:08:21.674Z,21.7
2022-09-28T03:16:28.914Z,21.71
2022-09-28T03:24:15.034Z,21.72
2022-09-28T03:32:03.669Z,21.72
2022-09-28T03:39:50.323Z,21.78
2022-09-28T03:47:30.477Z,21.62
2022-09-28T03:55:31.155Z,21.62
2022-09-28T04:03:16.685Z,21.81
2022-09-28T04:10:59.133Z,21.83
2022-09-28T04:18:35.672Z,21.85
2022-09-28T04:26:20.437Z,21.94
2022-09-28T04:34:08.359Z,21.88
2022-09-28T04:41:43.126Z,21.93
2022-09-28T04:49:16.770Z,21.92
2022-09-28T04:57:03.215Z,21.9
2022-09-28T05:04:52.856Z,21.84
2022-09-28T05:12:35.688Z,21.7
2022-09-28T05:20:27.177Z,21.58
2022-09-28T05:28:08.436Z,21.51
2022-09-28T05:35:44.653Z,21.5
2022-09-28T05:43:27.084Z,21.49
2022-09-28T05:51:06.072Z,21.51
2022-09-28T05:58:43.161Z,21.49
2022-09-28T06:06:24.628Z,21.5
2022-09-28T06:14:01.889Z,21.52
2022-09-28T06:21:59.843Z,21.55
2022-09-28T06:29:53.910Z,21.66
2022-09-28T06:37:40.567Z,21.71
2022-09-28T06:45:31.165Z,21.74
2022-09-28T06:53:13.772Z,21.92
2022-09-28T07:00:47.181Z,21.87
2022-09-28T07:08:47.800Z,21.75
2022-09-28T07:17:07.515Z,21.8
2022-09-28T07:24:38.031Z,21.86
2022-09-28T07:32:13.800Z,21.7
2022-09-28T07:40:03.321Z,21.7
2022-09-28T07:47:43.381Z,21.62
2022-09-28T07:55:24.601Z,21.65
2022-09-28T08:03:16.684Z,21.58
2022-09-28T08:11:01.766Z,21.59
2022-09-28T08:18:47.133Z,21.59
2022-09-28T08:26:24.942Z,21.64
2022-09-28T08:34:16.867Z,21.56
2022-09-28T08:42:05.833Z,21.65
2022-09-28T08:50:28.924Z,21.63
2022-09-28T08:58:33.778Z,21.77
2022-09-28T09:06:39.153Z,21.65
2022-09-28T09:14:50.476Z,21.66
2022-09-28T09:23:17.118Z,21.68
2022-09-28T09:31:40.661Z,21.7
2022-09-28T09:39:37.613Z,21.63
2022-09-28T09:47:59.329Z,21.75
2022-09-28T09:56:30.709Z,21.86
2022-09-28T10:04:40.937Z,21.84
2022-09-28T10:12:55.192Z,21.79
2022-09-28T10:20:48.590Z,21.79
2022-09-28T10:28:53.597Z,21.76
2022-09-28T10:36:53.808Z,21.86
2022-09-28T10:44:57.941Z,21.8
2022-09-28T10:52:57.042Z,21.85
2022-09-28T11:01:04.773Z,21.82
2022-09-28T11:09:12.550Z,21.82
2022-09-28T11:17:24.747Z,21.82
2022-09-28T11:25:25.422Z,21.81
2022-09-28T11:33:06.167Z,21.88
2022-09-28T11:41:12.044Z,21.81
2022-09-28T11:49:24.786Z,21.82
2022-09-28T11:57:20.710Z,21.85
2022-09-28T12:05:20.642Z,21.9
2022-09-28T12:13:28.387Z,21.87
2022-09-28T12:21:33.973Z,21.92
2022-09-28T12:29:33.957Z,22.03
2022-09-28T12:37:17.898Z,22.03
2022-09-28T12:44:59.674Z,22.1
2022-09-28T12:53:02.237Z,22.05
2022-09-28T13:00:44.353Z,22.09
2022-09-28T13:08:28.984Z,22.03
2022-09-28T13:15:49.970Z,21.97
2022-09-28T13:23:26.840Z,21.94
2022-09-28T13:38:20.570Z,22.03
2022-09-28T13:45:48.620Z,22.09
2022-09-28T13:53:39.563Z,22.02
2022-09-28T14:01:35.503Z,22.06
2022-09-28T14:09:30.986Z,21.98
2022-09-28T14:17:02.939Z,21.97
2022-09-28T14:24:53.828Z,21.95
2022-09-28T14:32:50.529Z,22.04
2022-09-28T14:40:25.844Z,22.1
2022-09-28T14:48:07.307Z,22.28
2022-09-28T14:55:58.632Z,22.39
2022-09-28T15:03:43.326Z,22.33
2022-09-28T15:11:37.996Z,22.31
2022-09-28T15:19:26.048Z,22.24
2022-09-28T15:27:05.047Z,22.21
2022-09-28T15:34:54.830Z,22.16
2022-09-28T15:42:24.576Z,22.11
2022-09-28T15:49:55.810Z,22.09
2022-09-28T15:57:38.277Z,22.04
2022-09-28T16:05:10.456Z,22.12
2022-09-28T16:12:31.410Z,22.15
2022-09-28T16:20:14.865Z,22.13
2022-09-28T16:28:01.761Z,22.15
2022-09-28T16:35:21.967Z,22.12
2022-09-28T16:42:50.914Z,22.08
2022-09-28T16:50:08.827Z,22.09
2022-09-28T16:57:51.581Z,22.05
2022-09-28T17:05:18.971Z,22.02
2022-09-28T17:12:38.162Z,21.97
2022-09-28T17:19:57.344Z,21.98
2022-09-28T17:27:06.443Z,21.94
2022-09-28T17:34:24.697Z,21.83
2022-09-28T17:41:47.745Z,21.89
2022-09-28T17:48:57.153Z,21.9
2022-09-28T17:56:06.609Z,21.89
2022-09-28T18:03:20.205Z,21.87
2022-09-28T18:10:46.506Z,21.84
2022-09-28T18:18:04.482Z,21.77
2022-09-28T18:25:23.121Z,21.81
2022-09-28T18:32:47.078Z,21.76
2022-09-28T18:40:18.864Z,21.76
2022-09-28T18:47:30.678Z,21.77
2022-09-28T18:54:56.632Z,21.71
2022-09-28T19:02:23.539Z,21.72
2022-09-28T19:09:52.767Z,21.74
2022-09-28T19:17:08.574Z,21.76
2022-09-28T19:24:27.590Z,21.78
2022-09-28T19:31:42.604Z,21.77
2022-09-28T19:39:16.743Z,21.75
2022-09-28T19:46:31.590Z,21.79
2022-09-28T19:54:08.948Z,21.8
2022-09-28T20:01:37.286Z,21.78
2022-09-28T20:08:54.674Z,21.76
2022-09-28T20:16:32.838Z,21.72
2022-09-28T20:24:08.079Z,21.72
2022-09-28T20:31:35.617Z,21.71
2022-09-28T20:39:08.776Z,21.68
2022-09-28T20:46:39.613Z,21.69
2022-09-28T20:54:15.469Z,21.66
2022-09-28T21:01:40.229Z,21.7
2022-09-28T21:09:21.661Z,21.65
2022-09-28T21:16:59.115Z,21.68
2022-09-28T21:24:41.006Z,21.64
2022-09-28T21:32:11.794Z,21.64
2022-09-28T21:39:52.022Z,21.63
2022-09-28T21:47:17.559Z,21.65
2022-09-28T21:54:51.639Z,21.6
2022-09-28T22:02:26.233Z,21.62
2022-09-28T22:09:42.456Z,21.63
2022-09-28T22:16:59.047Z,21.59
2022-09-28T22:24:19.927Z,21.63
2022-09-28T22:31:55.175Z,21.6
2022-09-28T22:39:38.805Z,21.66
2022-09-28T22:47:12.899Z,21.56
2022-09-28T22:54:35.913Z,21.58
2022-09-28T23:02:13.339Z,21.54
2022-09-28T23:09:47.521Z,21.51
2022-09-28T23:17:02.189Z,21.51
2022-09-28T23:24:21.006Z,21.51
2022-09-28T23:31:52.985Z,21.59
2022-09-28T23:39:15.601Z,21.65
2022-09-28T23:46:33.927Z,21.64
2022-09-28T23:54:14.206Z,21.63
